Time;durP1;ratioP1;P1;durP2;ratioP2;P2;SDS_P1;SDS_P2;PMS_P1;PMS_P2;Temp;Humidity;BMP_temperature;BMP_pressure;BME280_temperature;BME280_humidity;BME280_pressure;Samples;Min_cycle;Max_cycle;Signal;HPM_P1;HPM_P2
2021/03/07 00:02:03;;;;;;;31.00;28.73;;;-0.30;70.40;;;;;;5093005;28;20203;-77
2021/03/07 00:04:29;;;;;;;29.80;27.63;;;-0.40;70.70;;;;;;5095998;28;20203;-77
2021/03/07 00:06:55;;;;;;;31.52;29.38;;;-0.30;70.60;;;;;;5096066;28;20665;-77
2021/03/07 00:09:23;;;;;;;33.75;30.55;;;-0.30;70.60;;;;;;5095745;28;20214;-77
2021/03/07 00:11:49;;;;;;;32.28;29.98;;;-0.30;70.70;;;;;;5095627;28;20199;-77
2021/03/07 00:14:15;;;;;;;31.15;28.90;;;-0.40;71.00;;;;;;5095664;28;20212;-77
2021/03/07 00:16:42;;;;;;;30.05;28.15;;;-0.40;70.80;;;;;;5095664;28;20198;-77
2021/03/07 00:19:08;;;;;;;31.80;29.50;;;-0.40;71.20;;;;;;5095524;28;20305;-77
2021/03/07 00:21:34;;;;;;;32.20;29.90;;;-0.40;71.40;;;;;;5095625;28;20199;-77
2021/03/07 00:24:01;;;;;;;31.02;28.92;;;-0.50;71.40;;;;;;5095622;28;20195;-77
2021/03/07 00:26:28;;;;;;;31.08;29.05;;;-0.50;71.40;;;;;;5095411;28;20203;-77
2021/03/07 00:28:55;;;;;;;31.65;29.35;;;-0.50;71.10;;;;;;5095470;28;20238;-77
2021/03/07 00:31:21;;;;;;;31.42;28.95;;;-0.50;71.10;;;;;;5095480;28;20199;-77
2021/03/07 00:33:47;;;;;;;30.77;28.48;;;-0.60;71.30;;;;;;5095379;28;20195;-77
2021/03/07 00:36:14;;;;;;;31.52;28.95;;;-0.70;71.90;;;;;;5095233;28;20679;-77
2021/03/07 00:38:40;;;;;;;30.35;28.25;;;-0.70;72.30;;;;;;5095095;28;20348;-77
2021/03/07 00:41:07;;;;;;;31.88;29.38;;;-0.60;71.90;;;;;;5094829;28;20205;-77
2021/03/07 00:43:34;;;;;;;31.08;28.80;;;-0.70;72.10;;;;;;5095254;28;20235;-77
2021/03/07 00:46:00;;;;;;;31.77;29.15;;;-0.70;72.30;;;;;;5094931;28;20199;-77
2021/03/07 00:48:27;;;;;;;32.72;30.27;;;-0.60;72.10;;;;;;5094970;28;20235;-77
2021/03/07 00:50:53;;;;;;;30.70;28.60;;;-0.60;71.80;;;;;;5095143;28;20252;-77
2021/03/07 00:53:19;;;;;;;31.45;29.17;;;-0.60;71.80;;;;;;5094943;28;20259;-77
2021/03/07 00:55:46;;;;;;;31.30;29.15;;;-0.70;71.50;;;;;;5094859;28;20201;-77
2021/03/07 00:58:12;;;;;;;30.90;28.63;;;-0.70;71.50;;;;;;5094783;28;20223;-77
2021/03/07 01:00:41;;;;;;;30.00;27.75;;;-0.70;71.60;;;;;;5094866;28;20290;-77
2021/03/07 01:03:07;;;;;;;30.60;28.55;;;-0.80;78.20;;;;;;5094731;28;20206;-77
2021/03/07 01:05:34;;;;;;;32.25;29.35;;;-0.80;74.50;;;;;;5094816;28;20195;-77
2021/03/07 01:08:00;;;;;;;31.15;28.95;;;-0.80;73.10;;;;;;5094589;28;20191;-77
2021/03/07 01:10:30;;;;;;;30.65;28.35;;;-0.80;72.90;;;;;;5094654;28;20679;-76
2021/03/07 01:12:56;;;;;;;31.77;29.48;;;-0.80;72.80;;;;;;5094612;28;20201;-77
2021/03/07 01:15:27;;;;;;;30.58;28.55;;;-0.80;72.90;;;;;;5094619;28;20205;-77
2021/03/07 01:17:55;;;;;;;31.40;29.00;;;-0.90;73.00;;;;;;5094568;28;20223;-77
2021/03/07 01:20:21;;;;;;;30.60;28.30;;;-0.90;73.50;;;;;;5094356;28;20199;-77
2021/03/07 01:22:48;;;;;;;31.55;29.25;;;-0.90;73.60;;;;;;5094521;28;20207;-77
2021/03/07 01:25:16;;;;;;;31.15;29.05;;;-0.90;73.30;;;;;;5094534;28;20199;-77
2021/03/07 01:27:42;;;;;;;30.70;28.58;;;-1.00;73.60;;;;;;5094204;28;20271;-77
2021/03/07 01:30:11;;;;;;;30.30;28.20;;;-0.90;73.50;;;;;;5094257;28;20294;-77
2021/03/07 01:32:37;;;;;;;30.67;28.52;;;-1.00;73.70;;;;;;5094183;28;20225;-77
2021/03/07 01:35:06;;;;;;;32.65;30.00;;;-0.90;73.70;;;;;;5094147;28;20195;-77
2021/03/07 01:37:32;;;;;;;30.65;28.45;;;-0.90;73.70;;;;;;5093850;28;20292;-77
2021/03/07 01:39:59;;;;;;;30.80;28.70;;;-1.00;73.60;;;;;;5094082;28;20761;-77
2021/03/07 01:42:25;;;;;;;30.27;27.80;;;-1.00;73.70;;;;;;5093705;28;20191;-77
2021/03/07 01:44:51;;;;;;;31.65;29.25;;;-1.10;73.70;;;;;;5094028;28;20714;-77
2021/03/07 01:47:26;;;;;;;30.88;28.75;;;-1.00;73.50;;;;;;5093466;28;20669;-77
2021/03/07 01:49:52;;;;;;;30.83;28.65;;;-1.10;73.80;;;;;;5093853;28;20211;-77
2021/03/07 01:52:19;;;;;;;30.60;28.55;;;-1.20;73.80;;;;;;5093849;28;20195;-77
2021/03/07 01:54:46;;;;;;;32.13;29.40;;;-1.20;74.20;;;;;;5094033;28;20646;-77
2021/03/07 01:57:13;;;;;;;31.58;29.40;;;-1.20;74.30;;;;;;5093606;28;20271;-77
2021/03/07 01:59:43;;;;;;;31.13;28.52;;;-1.30;74.20;;;;;;5093847;28;20207;-77
2021/03/07 02:02:09;;;;;;;30.58;28.58;;;-1.30;74.20;;;;;;5093804;28;20198;-77
2021/03/07 02:04:35;;;;;;;31.05;29.02;;;-1.20;74.00;;;;;;5093960;28;20203;-77
2021/03/07 02:07:02;;;;;;;30.38;28.35;;;-1.30;74.10;;;;;;5093565;28;20633;-77
2021/03/07 02:09:29;;;;;;;33.53;31.15;;;-1.20;74.30;;;;;;5093498;28;20215;-77
2021/03/07 02:11:57;;;;;;;31.05;28.75;;;-1.20;74.20;;;;;;5093562;28;20252;-77
2021/03/07 02:14:28;;;;;;;30.15;28.00;;;-1.30;74.20;;;;;;5093435;28;20234;-77
2021/03/07 02:16:54;;;;;;;31.60;29.08;;;-1.30;80.90;;;;;;5093243;28;20199;-77
2021/03/07 02:19:25;;;;;;;30.95;28.88;;;-1.30;77.40;;;;;;5093297;28;20573;-77
2021/03/07 02:21:57;;;;;;;29.90;27.85;;;-1.30;76.50;;;;;;5093415;28;20657;-77
2021/03/07 02:24:24;;;;;;;32.13;29.88;;;-1.30;75.40;;;;;;5093091;28;20572;-77
2021/03/07 02:26:52;;;;;;;29.50;27.60;;;-1.40;74.90;;;;;;5092852;28;20203;-77
2021/03/07 02:29:20;;;;;;;31.05;29.05;;;-1.40;75.00;;;;;;5093248;28;20211;-77
2021/03/07 02:31:51;;;;;;;30.48;28.13;;;-1.40;75.10;;;;;;5092993;28;20227;-77
2021/03/07 02:34:19;;;;;;;30.50;28.33;;;-1.40;75.00;;;;;;5093316;28;20199;-77
2021/03/07 02:36:50;;;;;;;31.13;29.05;;;-1.40;75.30;;;;;;5092813;28;20534;-77
2021/03/07 02:39:19;;;;;;;30.77;28.50;;;-1.40;75.40;;;;;;5092957;28;20227;-77
2021/03/07 02:41:47;;;;;;;32.00;29.73;;;-1.40;75.30;;;;;;5092738;28;20290;-77
2021/03/07 02:44:17;;;;;;;31.02;28.67;;;-1.40;75.20;;;;;;5093063;28;20240;-77
2021/03/07 02:46:45;;;;;;;31.00;28.50;;;-1.40;74.90;;;;;;5092587;28;20198;-77
2021/03/07 02:49:14;;;;;;;30.55;28.55;;;-1.30;74.20;;;;;;5092896;28;20211;-77
2021/03/07 02:51:41;;;;;;;29.95;27.60;;;-1.30;73.60;;;;;;5092952;28;20324;-77
2021/03/07 02:54:10;;;;;;;29.65;27.55;;;-1.20;73.30;;;;;;5093007;28;20191;-77
2021/03/07 02:56:38;;;;;;;29.55;27.63;;;-1.10;73.10;;;;;;5092752;28;20195;-77
2021/03/07 02:59:09;;;;;;;29.92;27.90;;;-1.20;72.90;;;;;;5092775;28;20215;-77
2021/03/07 03:01:37;;;;;;;30.00;27.80;;;-1.10;72.80;;;;;;5092999;28;20191;-77
2021/03/07 03:04:04;;;;;;;30.08;28.08;;;-1.10;72.50;;;;;;5092718;28;20203;-77
2021/03/07 03:06:31;;;;;;;29.85;27.65;;;-1.10;72.40;;;;;;5092501;28;20679;-77
2021/03/07 03:08:59;;;;;;;30.60;28.40;;;-1.20;72.40;;;;;;5092579;28;20211;-77
2021/03/07 03:11:31;;;;;;;29.63;27.52;;;-1.20;72.70;;;;;;5092769;28;20247;-77
2021/03/07 03:13:58;;;;;;;29.73;27.83;;;-1.20;72.80;;;;;;5093124;28;20191;-77
2021/03/07 03:16:28;;;;;;;29.60;27.60;;;-1.30;73.10;;;;;;5092588;28;20297;-77
2021/03/07 03:18:57;;;;;;;30.85;28.50;;;-1.20;73.10;;;;;;5092544;28;20699;-77
2021/03/07 03:21:23;;;;;;;30.00;27.92;;;-1.10;72.90;;;;;;5092749;28;20215;-77
2021/03/07 03:23:50;;;;;;;30.45;28.50;;;-1.00;72.60;;;;;;5092574;28;20198;-77
2021/03/07 03:26:19;;;;;;;29.60;27.70;;;-1.00;72.60;;;;;;5092488;28;20245;-77
2021/03/07 03:28:47;;;;;;;30.30;28.30;;;-1.10;72.80;;;;;;5092551;28;20364;-77
2021/03/07 03:31:14;;;;;;;29.75;27.80;;;-1.20;73.30;;;;;;5092491;28;20629;-77
2021/03/07 03:33:41;;;;;;;30.88;28.73;;;-1.30;73.50;;;;;;5092465;28;20563;-77
2021/03/07 03:36:07;;;;;;;30.30;28.17;;;-1.20;73.40;;;;;;5092232;28;20195;-77
2021/03/07 03:38:39;;;;;;;29.60;27.50;;;-1.30;73.40;;;;;;5095611;28;20218;-77
2021/03/07 03:41:09;;;;;;;30.80;28.63;;;-1.40;74.30;;;;;;5096276;28;20195;-77
2021/03/07 03:43:36;;;;;;;29.48;27.55;;;-1.40;75.20;;;;;;5096491;28;20278;-76
2021/03/07 03:46:05;;;;;;;29.00;27.20;;;-1.40;74.70;;;;;;5096075;28;20615;-77
2021/03/07 03:48:37;;;;;;;30.42;28.23;;;-1.40;74.10;;;;;;5096180;28;20215;-77
2021/03/07 03:51:07;;;;;;;30.92;28.75;;;-1.30;73.90;;;;;;5096374;28;20217;-77
2021/03/07 03:53:35;;;;;;;30.13;28.02;;;-1.40;73.90;;;;;;5096337;28;20191;-77
2021/03/07 03:56:02;;;;;;;30.80;28.50;;;-1.40;73.80;;;;;;5096563;28;20286;-76
2021/03/07 03:58:33;;;;;;;28.55;26.67;;;-1.40;75.90;;;;;;5095945;28;20223;-77
2021/03/07 04:01:01;;;;;;;29.77;27.77;;;-1.50;75.30;;;;;;5096125;28;20213;-77
2021/03/07 04:03:27;;;;;;;30.38;28.27;;;-1.50;75.00;;;;;;5096085;28;20202;-77
2021/03/07 04:05:56;;;;;;;29.58;27.55;;;-1.50;75.60;;;;;;5096106;28;20195;-77
2021/03/07 04:08:24;;;;;;;30.33;28.13;;;-1.40;75.40;;;;;;5095867;28;20225;-77
2021/03/07 04:10:52;;;;;;;29.48;27.38;;;-1.40;75.00;;;;;;5095945;28;20209;-76
2021/03/07 04:13:20;;;;;;;30.55;28.45;;;-1.40;74.90;;;;;;5095711;28;20196;-76
2021/03/07 04:15:47;;;;;;;28.27;26.38;;;-1.40;74.60;;;;;;5095753;28;20191;-77
2021/03/07 04:18:15;;;;;;;30.73;28.58;;;-1.30;74.30;;;;;;5095671;28;20300;-77
2021/03/07 04:20:42;;;;;;;29.58;27.58;;;-1.20;73.90;;;;;;5095809;28;20243;-76
2021/03/07 04:23:08;;;;;;;31.27;28.80;;;-1.30;74.10;;;;;;5095957;28;20191;-77
2021/03/07 04:25:36;;;;;;;30.33;28.10;;;-1.40;74.50;;;;;;5095750;28;20612;-76
2021/03/07 04:28:04;;;;;;;30.42;28.33;;;-1.40;74.60;;;;;;5095929;28;20527;-77
2021/03/07 04:30:31;;;;;;;29.40;27.50;;;-1.40;74.80;;;;;;5095756;28;20200;-76
2021/03/07 04:32:58;;;;;;;29.85;27.75;;;-1.50;75.10;;;;;;5095749;28;20195;-77
2021/03/07 04:35:25;;;;;;;31.35;29.05;;;-1.50;75.50;;;;;;5095756;28;20222;-76
2021/03/07 04:37:51;;;;;;;30.05;28.00;;;-1.50;75.50;;;;;;5095419;28;20215;-77
2021/03/07 04:40:18;;;;;;;30.35;28.05;;;-1.50;75.30;;;;;;5095436;28;20203;-76
2021/03/07 04:42:46;;;;;;;29.83;27.73;;;-1.60;76.20;;;;;;5095531;28;20206;-76
2021/03/07 04:45:14;;;;;;;1999.90;354.05;;;-1.70;78.10;;;;;;5095550;28;20195;-76
2021/03/07 04:47:42;;;;;;;29.85;27.85;;;-1.70;81.70;;;;;;5094529;28;20201;-76
2021/03/07 04:50:09;;;;;;;29.75;27.55;;;-1.60;83.50;;;;;;5096054;28;20311;-76
2021/03/07 04:52:35;;;;;;;29.05;27.05;;;-1.60;84.50;;;;;;5096980;28;20191;-76
2021/03/07 04:55:03;;;;;;;29.52;27.38;;;-1.60;81.70;;;;;;5103075;28;20329;-77
2021/03/07 04:57:29;;;;;;;28.15;26.15;;;-1.50;79.90;;;;;;5103045;28;20280;-78
2021/03/07 04:59:56;;;;;;;28.33;26.42;;;-1.50;77.00;;;;;;5102997;28;20259;-77
2021/03/07 05:02:23;;;;;;;29.20;27.13;;;-1.60;75.40;;;;;;5102582;28;20195;-77
2021/03/07 05:04:49;;;;;;;28.85;26.92;;;-1.50;75.40;;;;;;5103744;28;20238;-77
2021/03/07 05:07:16;;;;;;;30.42;28.23;;;-1.40;74.90;;;;;;5102083;28;20213;-77
2021/03/07 05:09:42;;;;;;;29.40;27.23;;;-1.40;74.80;;;;;;5102088;28;20703;-77
2021/03/07 05:12:09;;;;;;;29.90;27.80;;;-1.40;75.30;;;;;;5101379;28;20295;-77
2021/03/07 05:14:35;;;;;;;30.38;28.17;;;-1.50;78.00;;;;;;5099629;28;20199;-77
2021/03/07 05:17:02;;;;;;;27.80;25.90;;;-1.40;78.20;;;;;;5096693;28;20568;-77
2021/03/07 05:19:29;;;;;;;29.27;27.17;;;-1.50;77.40;;;;;;5094802;28;20306;-77
2021/03/07 05:21:55;;;;;;;30.10;27.98;;;-1.50;76.90;;;;;;5094932;28;20203;-77
2021/03/07 05:24:21;;;;;;;29.17;27.27;;;-1.50;76.20;;;;;;5094816;28;20201;-77
2021/03/07 05:26:48;;;;;;;30.52;28.33;;;-1.50;75.90;;;;;;5094651;28;20289;-77
2021/03/07 05:29:14;;;;;;;29.75;27.75;;;-1.40;81.80;;;;;;5094642;28;20208;-77
2021/03/07 05:31:41;;;;;;;31.33;29.02;;;-1.50;78.20;;;;;;5094656;28;20283;-77
2021/03/07 05:34:08;;;;;;;28.95;27.05;;;-1.50;77.00;;;;;;5094507;28;20197;-77
2021/03/07 05:36:34;;;;;;;28.65;26.83;;;-1.50;77.30;;;;;;5094270;28;20191;-77
2021/03/07 05:39:01;;;;;;;30.50;28.35;;;-1.40;76.80;;;;;;5094136;28;20306;-77
2021/03/07 05:41:27;;;;;;;29.45;27.55;;;-1.40;75.80;;;;;;5093966;28;20595;-77
2021/03/07 05:43:54;;;;;;;30.80;28.70;;;-1.40;75.50;;;;;;5094080;28;20203;-77
2021/03/07 05:46:20;;;;;;;31.13;28.95;;;-1.40;75.20;;;;;;5093796;28;20191;-77
2021/03/07 05:48:46;;;;;;;30.00;28.05;;;-1.50;75.20;;;;;;5093820;28;20215;-77
2021/03/07 05:51:16;;;;;;;30.55;28.65;;;-1.50;75.30;;;;;;5093910;28;20748;-77
2021/03/07 05:53:47;;;;;;;31.90;29.40;;;-1.50;75.30;;;;;;5093857;28;20195;-77
2021/03/07 05:56:14;;;;;;;31.25;29.00;;;-1.50;76.40;;;;;;5093776;28;20199;-77
2021/03/07 05:58:41;;;;;;;29.85;27.70;;;-1.50;79.00;;;;;;5093716;28;20222;-77
2021/03/07 06:01:07;;;;;;;31.25;28.85;;;-1.50;77.50;;;;;;5092952;28;20244;-77
2021/03/07 06:03:34;;;;;;;31.27;29.08;;;-1.40;76.90;;;;;;5093715;28;20669;-77
2021/03/07 06:06:00;;;;;;;30.80;28.40;;;-1.40;76.50;;;;;;5093360;28;20609;-77
2021/03/07 06:08:27;;;;;;;31.13;28.85;;;-1.50;76.60;;;;;;5093565;28;20701;-77
2021/03/07 06:10:54;;;;;;;30.63;28.42;;;-1.50;76.10;;;;;;5093731;28;20199;-77
2021/03/07 06:13:20;;;;;;;30.92;28.83;;;-1.40;75.90;;;;;;5093521;28;20191;-77
2021/03/07 06:15:48;;;;;;;29.95;27.95;;;-1.40;76.00;;;;;;5093339;28;20191;-77
2021/03/07 06:18:15;;;;;;;31.27;29.08;;;-1.40;75.80;;;;;;5093400;28;20566;-77
2021/03/07 06:20:43;;;;;;;31.13;28.92;;;-1.40;76.00;;;;;;5093588;28;20202;-77
2021/03/07 06:23:09;;;;;;;31.30;29.00;;;-1.30;75.70;;;;;;5093352;28;20195;-77
2021/03/07 06:25:47;;;;;;;30.85;28.65;;;-1.20;75.70;;;;;;5093178;28;20290;-77
2021/03/07 06:28:21;;;;;;;31.00;28.60;;;-1.20;75.40;;;;;;5093223;28;20299;-77
2021/03/07 06:30:47;;;;;;;32.17;29.75;;;-1.30;75.80;;;;;;5093111;28;20205;-77
2021/03/07 06:33:29;;;;;;;31.73;29.33;;;-1.20;75.80;;;;;;5093223;28;20232;-77
2021/03/07 06:36:17;;;;;;;31.88;29.48;;;-1.20;75.10;;;;;;5093054;28;20248;-77
2021/03/07 06:38:47;;;;;;;30.77;28.45;;;-1.20;74.70;;;;;;5093107;28;20227;-77
2021/03/07 06:41:19;;;;;;;31.70;29.20;;;-1.10;74.70;;;;;;5092854;28;20286;-77
2021/03/07 06:43:46;;;;;;;31.23;28.88;;;-0.90;74.40;;;;;;5093200;28;20204;-77
2021/03/07 06:46:32;;;;;;;29.70;27.60;;;-0.90;74.00;;;;;;5092583;28;20222;-77
2021/03/07 06:48:59;;;;;;;31.15;28.48;;;-0.80;73.80;;;;;;5092911;28;20219;-77
2021/03/07 06:51:27;;;;;;;30.52;28.10;;;-0.80;73.60;;;;;;5092886;28;20290;-77
2021/03/07 06:53:54;;;;;;;29.55;27.55;;;-0.80;73.60;;;;;;5092992;28;20621;-77
2021/03/07 06:56:43;;;;;;;32.90;30.50;;;-0.70;73.40;;;;;;5092737;28;20619;-77
2021/03/07 06:59:15;;;;;;;30.98;28.67;;;-0.60;73.20;;;;;;5092748;28;20272;-77
2021/03/07 07:01:43;;;;;;;32.97;30.67;;;-0.40;72.40;;;;;;5092926;28;20206;-77
2021/03/07 07:04:11;;;;;;;33.15;30.45;;;-0.40;72.40;;;;;;5092682;28;20202;-77
2021/03/07 07:06:39;;;;;;;31.23;29.05;;;-0.30;72.30;;;;;;5092775;28;20195;-77
2021/03/07 07:09:07;;;;;;;31.20;28.90;;;-0.30;72.00;;;;;;5092709;28;20207;-76
2021/03/07 07:11:45;;;;;;;32.45;30.05;;;-0.30;71.90;;;;;;5095809;28;20194;-77
2021/03/07 07:14:13;;;;;;;32.25;30.00;;;-0.20;72.10;;;;;;5099451;28;20657;-77
2021/03/07 07:16:39;;;;;;;29.50;27.60;;;-0.10;72.10;;;;;;5099166;28;20192;-77
2021/03/07 07:19:07;;;;;;;31.65;29.55;;;0.00;71.60;;;;;;5099055;28;20222;-77
2021/03/07 07:21:34;;;;;;;31.77;29.52;;;0.20;71.40;;;;;;5099307;28;20199;-77
2021/03/07 07:24:00;;;;;;;31.38;28.95;;;0.30;71.10;;;;;;5099352;28;20681;-77
2021/03/07 07:26:27;;;;;;;31.50;29.30;;;0.40;70.80;;;;;;5099046;28;20196;-77
2021/03/07 07:28:54;;;;;;;32.13;29.85;;;0.50;70.70;;;;;;5099093;28;20217;-77
2021/03/07 07:31:30;;;;;;;32.85;30.55;;;0.70;70.40;;;;;;5099297;28;20535;-77
2021/03/07 07:34:00;;;;;;;31.67;29.50;;;0.80;70.10;;;;;;5099367;28;20253;-77
2021/03/07 07:36:31;;;;;;;30.58;28.30;;;0.90;70.70;;;;;;5098898;28;20562;-77
2021/03/07 07:38:59;;;;;;;32.17;29.88;;;1.00;70.40;;;;;;5099144;28;20231;-77
2021/03/07 07:41:31;;;;;;;33.60;31.23;;;1.10;71.70;;;;;;5098983;28;20306;-77
2021/03/07 07:43:59;;;;;;;31.17;28.88;;;1.30;74.00;;;;;;5099202;28;20206;-77
2021/03/07 07:46:25;;;;;;;31.45;29.38;;;1.30;70.80;;;;;;5098747;28;20297;-77
2021/03/07 07:48:52;;;;;;;34.25;31.95;;;1.30;68.80;;;;;;5099071;28;20239;-77
2021/03/07 07:51:45;;;;;;;31.42;28.95;;;1.50;68.50;;;;;;5099193;28;20209;-77
2021/03/07 07:54:46;;;;;;;32.63;30.33;;;1.60;67.80;;;;;;5099078;28;20233;-77
2021/03/07 07:57:40;;;;;;;32.10;29.80;;;1.60;67.00;;;;;;5098790;28;20602;-77
2021/03/07 08:00:09;;;;;;;33.35;30.85;;;1.70;66.90;;;;;;5098851;28;20220;-77
2021/03/07 08:03:03;;;;;;;32.47;29.30;;;1.80;66.70;;;;;;5099136;28;20193;-77
2021/03/07 08:05:45;;;;;;;30.88;28.80;;;1.90;66.20;;;;;;5062833;28;20196;-76
2021/03/07 08:08:15;;;;;;;31.60;29.30;;;1.90;66.00;;;;;;5098929;28;20758;-77
2021/03/07 08:10:47;;;;;;;31.02;28.80;;;2.00;65.90;;;;;;5098843;28;20276;-77
2021/03/07 08:13:14;;;;;;;32.70;30.40;;;2.00;65.80;;;;;;5098861;28;20216;-77
2021/03/07 08:15:50;;;;;;;30.90;28.60;;;2.10;65.70;;;;;;5098754;28;20286;-77
2021/03/07 08:18:19;;;;;;;31.58;29.25;;;2.20;65.80;;;;;;5098663;28;20219;-78
2021/03/07 08:21:05;;;;;;;31.92;29.70;;;2.20;66.30;;;;;;5098756;28;20306;-77
2021/03/07 08:23:59;;;;;;;33.50;30.98;;;2.40;66.30;;;;;;5095892;28;20212;-77
2021/03/07 08:26:28;;;;;;;32.53;29.92;;;2.50;65.20;;;;;;5095387;28;20195;-77
2021/03/07 08:28:54;;;;;;;30.75;28.35;;;2.70;64.90;;;;;;5095403;28;20213;-77
2021/03/07 08:31:35;;;;;;;32.00;29.70;;;2.90;64.10;;;;;;5095462;28;20196;-78
2021/03/07 08:34:23;;;;;;;32.25;29.73;;;3.10;64.30;;;;;;5095430;28;20234;-77
2021/03/07 08:37:00;;;;;;;34.53;31.88;;;3.10;65.50;;;;;;5095102;28;20210;-77
2021/03/07 08:39:30;;;;;;;33.22;30.45;;;3.10;70.60;;;;;;5095171;28;20230;-76
2021/03/07 08:42:03;;;;;;;32.88;30.45;;;3.30;69.70;;;;;;5094999;28;20207;-77
2021/03/07 08:44:31;;;;;;;31.55;29.17;;;3.40;66.30;;;;;;5095317;28;20244;-77
2021/03/07 08:46:58;;;;;;;32.90;30.27;;;3.50;64.20;;;;;;5095068;28;20564;-77
2021/03/07 08:49:28;;;;;;;32.78;30.45;;;3.60;62.90;;;;;;5094876;28;20658;-77
2021/03/07 08:52:04;;;;;;;31.05;28.80;;;3.60;63.00;;;;;;5095137;28;20203;-77
2021/03/07 08:54:33;;;;;;;33.08;30.58;;;3.60;62.30;;;;;;5095070;28;20550;-77
2021/03/07 08:57:05;;;;;;;32.05;29.60;;;3.60;65.30;;;;;;5094772;28;20198;-77
2021/03/07 08:59:33;;;;;;;33.63;30.90;;;3.80;67.20;;;;;;5094817;28;20219;-77
2021/03/07 09:02:02;;;;;;;33.20;30.67;;;3.80;63.80;;;;;;5094968;28;20231;-77
2021/03/07 09:04:37;;;;;;;33.67;31.10;;;3.90;62.00;;;;;;5094900;28;20204;-77
2021/03/07 09:07:04;;;;;;;31.75;29.35;;;4.00;63.50;;;;;;5094486;28;20191;-77
2021/03/07 09:09:30;;;;;;;32.38;30.13;;;4.10;62.10;;;;;;5094731;28;20696;-77
2021/03/07 09:11:59;;;;;;;32.10;29.83;;;4.30;60.80;;;;;;5094798;28;20223;-77
2021/03/07 09:14:32;;;;;;;32.17;29.83;;;4.40;60.50;;;;;;5094644;28;20672;-77
2021/03/07 09:17:00;;;;;;;32.00;29.55;;;4.40;59.90;;;;;;5094496;28;20198;-77
2021/03/07 09:19:33;;;;;;;32.13;29.92;;;4.60;59.80;;;;;;5094293;28;20261;-77
2021/03/07 09:22:15;;;;;;;31.55;29.27;;;4.60;59.80;;;;;;5094571;28;20282;-77
2021/03/07 09:24:52;;;;;;;33.25;30.70;;;4.80;59.70;;;;;;5094494;28;20246;-77
2021/03/07 09:27:19;;;;;;;31.52;29.15;;;5.00;59.00;;;;;;5094311;28;20406;-77
2021/03/07 09:29:54;;;;;;;31.08;28.85;;;5.30;58.30;;;;;;5094153;28;20211;-77
2021/03/07 09:32:28;;;;;;;34.35;31.88;;;5.50;57.60;;;;;;5095159;28;20196;-77
2021/03/07 09:34:57;;;;;;;32.85;30.40;;;5.50;57.70;;;;;;5093827;28;20201;-77
2021/03/07 09:37:24;;;;;;;32.13;29.90;;;5.60;57.60;;;;;;5093980;28;20291;-77
2021/03/07 09:39:50;;;;;;;31.42;29.33;;;6.00;56.70;;;;;;5094037;28;20251;-77
2021/03/07 09:42:18;;;;;;;33.35;30.90;;;6.10;56.70;;;;;;5093851;28;20290;-77
2021/03/07 09:44:45;;;;;;;32.70;30.25;;;6.40;56.40;;;;;;5093978;28;20692;-77
2021/03/07 09:47:12;;;;;;;32.80;30.58;;;6.50;55.90;;;;;;5093653;28;20199;-77
2021/03/07 09:49:40;;;;;;;33.50;31.00;;;6.50;56.30;;;;;;5094055;28;20219;-77
2021/03/07 09:52:08;;;;;;;31.95;29.73;;;6.70;56.00;;;;;;5093441;28;20558;-77
2021/03/07 09:54:35;;;;;;;33.15;30.65;;;7.00;55.50;;;;;;5093953;28;20216;-77
2021/03/07 09:57:01;;;;;;;33.80;31.10;;;7.20;55.00;;;;;;5093581;28;20209;-78
2021/03/07 09:59:32;;;;;;;34.65;32.10;;;7.30;55.00;;;;;;5094151;28;20231;-77
2021/03/07 10:02:00;;;;;;;34.53;31.92;;;7.50;54.80;;;;;;5095389;28;20269;-77
2021/03/07 10:04:29;;;;;;;32.05;29.75;;;7.60;54.20;;;;;;5093655;28;20213;-78
2021/03/07 10:06:56;;;;;;;32.95;30.65;;;7.80;53.70;;;;;;5093484;28;20290;-77
2021/03/07 10:09:23;;;;;;;34.95;32.53;;;7.80;53.40;;;;;;5093346;28;20218;-77
2021/03/07 10:11:57;;;;;;;32.38;30.17;;;7.90;53.50;;;;;;5093241;28;20195;-77
2021/03/07 10:14:25;;;;;;;35.50;32.90;;;7.90;53.60;;;;;;5093269;28;20203;-78
2021/03/07 10:16:52;;;;;;;32.05;29.85;;;7.90;53.70;;;;;;5093051;28;20225;-77
2021/03/07 10:19:19;;;;;;;33.67;31.27;;;8.00;53.20;;;;;;5093111;28;20234;-77
2021/03/07 10:21:46;;;;;;;32.05;29.83;;;7.80;52.70;;;;;;5093269;28;20203;-77
2021/03/07 10:24:15;;;;;;;33.50;31.00;;;7.70;53.20;;;;;;5093091;28;20199;-77
2021/03/07 10:26:44;;;;;;;32.95;30.55;;;7.60;53.50;;;;;;5093020;28;20290;-77
2021/03/07 10:29:28;;;;;;;34.75;32.60;;;7.80;53.40;;;;;;5093047;28;20214;-77
2021/03/07 10:32:06;;;;;;;35.25;32.75;;;7.70;53.30;;;;;;5093147;28;20256;-77
2021/03/07 10:34:34;;;;;;;33.17;30.88;;;7.50;53.80;;;;;;5093198;28;20695;-77
2021/03/07 10:37:01;;;;;;;33.33;31.15;;;7.50;54.30;;;;;;5092916;28;20195;-77
2021/03/07 10:39:27;;;;;;;38.05;35.25;;;7.70;54.10;;;;;;5092837;28;20226;-77
2021/03/07 10:42:05;;;;;;;33.22;30.67;;;7.80;53.40;;;;;;5092813;28;20289;-77
2021/03/07 10:44:32;;;;;;;33.05;30.42;;;8.00;53.90;;;;;;5093057;28;20205;-77
2021/03/07 10:47:17;;;;;;;32.30;30.00;;;8.10;53.20;;;;;;5092234;28;20195;-77
2021/03/07 10:49:46;;;;;;;32.65;30.35;;;8.30;52.60;;;;;;5092840;28;20207;-77
2021/03/07 10:52:12;;;;;;;33.72;31.35;;;8.30;52.70;;;;;;5092997;28;20195;-77
2021/03/07 10:54:40;;;;;;;32.97;30.58;;;8.40;53.20;;;;;;5092970;28;20290;-77
2021/03/07 10:57:09;;;;;;;33.03;30.77;;;8.70;52.80;;;;;;5092701;28;20198;-77
2021/03/07 10:59:35;;;;;;;32.17;29.90;;;8.90;51.50;;;;;;5092635;28;20223;-77
2021/03/07 11:02:04;;;;;;;33.25;30.75;;;8.90;51.50;;;;;;5092864;28;20282;-77
2021/03/07 11:04:30;;;;;;;33.60;31.02;;;8.90;51.00;;;;;;5092606;28;20203;-77
2021/03/07 11:06:57;;;;;;;33.20;30.83;;;8.60;51.90;;;;;;5092604;28;20199;-77
2021/03/07 11:09:23;;;;;;;34.60;32.00;;;8.50;52.60;;;;;;5092694;28;20245;-77
2021/03/07 11:11:49;;;;;;;32.97;30.50;;;8.40;54.00;;;;;;5092548;28;20278;-78
2021/03/07 11:14:16;;;;;;;33.13;30.90;;;8.50;54.40;;;;;;5092729;28;20672;-77
2021/03/07 11:16:43;;;;;;;33.83;31.20;;;8.60;57.00;;;;;;5092518;28;20592;-77
2021/03/07 11:19:09;;;;;;;34.78;32.25;;;8.60;52.90;;;;;;5092724;28;20223;-78
2021/03/07 11:21:36;;;;;;;33.40;31.00;;;8.50;54.80;;;;;;5092705;28;20199;-77
2021/03/07 11:24:03;;;;;;;32.00;29.60;;;8.50;55.50;;;;;;5092604;28;20278;-77
2021/03/07 11:26:30;;;;;;;32.22;29.80;;;8.60;53.50;;;;;;5092397;28;20195;-77
2021/03/07 11:28:56;;;;;;;33.40;31.10;;;8.60;54.20;;;;;;5092462;28;20305;-77
2021/03/07 11:31:23;;;;;;;34.30;31.85;;;8.80;53.40;;;;;;5092598;28;20203;-78
2021/03/07 11:33:49;;;;;;;32.65;30.33;;;9.00;52.30;;;;;;5092478;28;20197;-77
2021/03/07 11:36:16;;;;;;;32.95;30.48;;;9.00;51.90;;;;;;5092229;28;20195;-77
2021/03/07 11:38:42;;;;;;;32.92;30.63;;;9.10;52.20;;;;;;5092213;28;20221;-77
2021/03/07 11:41:08;;;;;;;33.67;31.15;;;9.20;51.70;;;;;;5092175;28;20427;-77
2021/03/07 11:43:35;;;;;;;34.15;31.65;;;9.10;52.20;;;;;;5092344;28;20199;-77
2021/03/07 11:46:01;;;;;;;35.72;33.03;;;9.00;51.90;;;;;;5092098;28;20199;-77
2021/03/07 11:48:29;;;;;;;32.80;30.50;;;9.00;51.90;;;;;;5092169;28;20219;-78
2021/03/07 11:50:55;;;;;;;33.33;30.83;;;9.00;51.80;;;;;;5092374;28;20196;-77
2021/03/07 11:53:22;;;;;;;33.63;31.23;;;8.70;52.70;;;;;;5092372;28;20198;-77
2021/03/07 11:55:48;;;;;;;32.78;30.58;;;8.80;53.40;;;;;;5092001;28;20191;-78
2021/03/07 11:58:14;;;;;;;34.35;31.67;;;8.90;52.90;;;;;;5093259;28;20215;-78
2021/03/07 12:00:41;;;;;;;33.53;31.20;;;9.00;51.60;;;;;;5096518;28;20201;-77
2021/03/07 12:03:07;;;;;;;35.20;32.58;;;8.70;51.40;;;;;;5096013;28;20321;-77
2021/03/07 12:05:34;;;;;;;33.05;30.38;;;8.80;51.30;;;;;;5095902;28;20318;-77
2021/03/07 12:08:01;;;;;;;32.97;30.73;;;8.60;52.10;;;;;;5095843;28;20195;-77
2021/03/07 12:10:27;;;;;;;33.58;31.17;;;8.60;52.20;;;;;;5095975;28;20676;-77
2021/03/07 12:12:54;;;;;;;33.65;31.25;;;8.60;51.90;;;;;;5095741;28;20195;-77
2021/03/07 12:15:21;;;;;;;34.70;32.00;;;8.70;51.70;;;;;;5095822;28;20191;-78
2021/03/07 12:17:47;;;;;;;34.88;32.33;;;8.70;51.90;;;;;;5095670;28;20195;-77
2021/03/07 12:20:14;;;;;;;31.65;29.63;;;8.70;51.50;;;;;;5095606;28;20223;-77
2021/03/07 12:22:41;;;;;;;33.05;30.55;;;8.70;51.40;;;;;;5095550;28;20191;-77
2021/03/07 12:25:09;;;;;;;34.63;32.20;;;8.90;51.30;;;;;;5095488;28;20286;-77
2021/03/07 12:27:36;;;;;;;33.58;31.17;;;8.90;51.40;;;;;;5095497;28;20191;-77
2021/03/07 12:30:03;;;;;;;34.72;32.25;;;9.10;50.70;;;;;;5095497;28;20222;-77
2021/03/07 12:32:30;;;;;;;35.22;32.58;;;9.00;50.50;;;;;;5095429;28;20729;-77
2021/03/07 12:34:56;;;;;;;32.92;30.52;;;9.00;50.70;;;;;;5095856;28;20660;-77
2021/03/07 12:37:22;;;;;;;33.80;31.50;;;9.00;50.60;;;;;;5095257;28;20196;-77
2021/03/07 12:39:50;;;;;;;36.40;33.90;;;8.80;51.00;;;;;;5096339;28;20226;-77